EHBK/MST METAR and TAF weather

Enter ICAO airport designator
Station Type Date Time Source
EHBK METAR 2020/10/22 03:25 UTC NOAA

EHBK 220325Z AUTO 20011KT 9999 NSC 14/12 Q1010


Station Type Date Time Source
EHBK Decoded METAR 2020/10/22 03:25 UTC NOAA

Maastricht Airport Zuid Limburg, Netherlands (EHBK) 50-55N 005-47E 116M
Oct 21, 2020 - 11:25 PM EDT / 2020.10.22 0325 UTC
Wind: from the SSW (200 degrees) at 13 MPH (11 KT):0
Visibility: greater than 7 mile(s):0
Temperature: 57 F (14 C)
Dew Point: 53 F (12 C)
Relative Humidity: 87%
Pressure (altimeter): 29.83 in. Hg (1010 hPa)
ob: EHBK 220325Z AUTO 20011KT 9999 NSC 14/12 Q1010
cycle: 3

Station Type Date Time Source
EHBK TAF 2020/10/21 18:27 UTC NOAA

TAF EHBK 211658Z 2118/2224 22020G30KT 9999 FEW040
BECMG 2118/2121 22013KT PROB30
TEMPO 2118/2121 7000 SHRA FEW035CB PROB30
TEMPO 2210/2215 6000 SHRA FEW015CB
TEMPO 2215/2219 6000 SHRA SCT020CB PROB40
TEMPO 2215/2218 22015G25KT 4000 SHRA TSRA SCT020CB PROB30 2222/2224 6000 MIFG

Example: see airport list